sensor_id;sensor_type;location;lat;lon;timestamp;pressure;altitude;pressure_sealevel;temperature;humidity
33949;BME280;20229;49.856;19.030;2022-09-16T00:01:34;100625.06;;;13.58;100.00
33949;BME280;20229;49.856;19.030;2022-09-16T00:06:37;100622.55;;;13.68;100.00
33949;BME280;20229;49.856;19.030;2022-09-16T00:12:00;100638.80;;;13.71;100.00
33949;BME280;20229;49.856;19.030;2022-09-16T00:17:04;100634.51;;;13.80;100.00
33949;BME280;20229;49.856;19.030;2022-09-16T00:22:29;100640.87;;;13.80;100.00
33949;BME280;20229;49.856;19.030;2022-09-16T00:27:32;100639.66;;;13.84;100.00
33949;BME280;20229;49.856;19.030;2022-09-16T00:32:51;100634.51;;;13.80;100.00
33949;BME280;20229;49.856;19.030;2022-09-16T00:37:55;100637.13;;;13.81;100.00
33949;BME280;20229;49.856;19.030;2022-09-16T00:43:18;100641.74;;;13.81;100.00
33949;BME280;20229;49.856;19.030;2022-09-16T00:48:25;100642.19;;;13.87;100.00
33949;BME280;20229;49.856;19.030;2022-09-16T00:53:48;100640.33;;;13.88;100.00
33949;BME280;20229;49.856;19.030;2022-09-16T00:59:02;100644.37;;;13.95;100.00
33949;BME280;20229;49.856;19.030;2022-09-16T01:04:28;100652.73;;;13.94;100.00
33949;BME280;20229;49.856;19.030;2022-09-16T01:09:32;100646.60;;;14.03;100.00
33949;BME280;20229;49.856;19.030;2022-09-16T01:14:36;100659.33;;;14.04;100.00
33949;BME280;20229;49.856;19.030;2022-09-16T01:20:05;100662.60;;;14.09;100.00
33949;BME280;20229;49.856;19.030;2022-09-16T01:51:40;100656.89;;;14.12;100.00
33949;BME280;20229;49.856;19.030;2022-09-16T02:07:21;100670.55;;;14.14;100.00
33949;BME280;20229;49.856;19.030;2022-09-16T02:12:31;100669.32;;;14.18;100.00
33949;BME280;20229;49.856;19.030;2022-09-16T02:17:41;100679.30;;;14.19;100.00
33949;BME280;20229;49.856;19.030;2022-09-16T02:22:50;100676.43;;;14.20;100.00
33949;BME280;20229;49.856;19.030;2022-09-16T02:27:59;100681.27;;;14.17;100.00
33949;BME280;20229;49.856;19.030;2022-09-16T02:33:06;100684.92;;;14.17;100.00
33949;BME280;20229;49.856;19.030;2022-09-16T02:38:20;100675.13;;;14.13;100.00
33949;BME280;20229;49.856;19.030;2022-09-16T02:43:24;100667.66;;;14.15;100.00
33949;BME280;20229;49.856;19.030;2022-09-16T02:53:51;100672.62;;;14.10;100.00
33949;BME280;20229;49.856;19.030;2022-09-16T02:58:57;100670.09;;;14.07;100.00
33949;BME280;20229;49.856;19.030;2022-09-16T03:04:02;100659.12;;;14.07;100.00
33949;BME280;20229;49.856;19.030;2022-09-16T03:09:16;100653.18;;;14.00;100.00
33949;BME280;20229;49.856;19.030;2022-09-16T03:20:34;100661.75;;;13.96;100.00
33949;BME280;20229;49.856;19.030;2022-09-16T03:30:18;100668.64;;;13.88;100.00
33949;BME280;20229;49.856;19.030;2022-09-16T03:35:26;100667.09;;;13.84;99.22
33949;BME280;20229;49.856;19.030;2022-09-16T03:40:32;100667.52;;;13.66;99.43
33949;BME280;20229;49.856;19.030;2022-09-16T03:45:36;100668.69;;;13.49;99.46
33949;BME280;20229;49.856;19.030;2022-09-16T03:50:57;100683.12;;;13.25;99.96
33949;BME280;20229;49.856;19.030;2022-09-16T03:56:01;100675.60;;;13.14;100.00
33949;BME280;20229;49.856;19.030;2022-09-16T04:01:24;100681.41;;;12.96;100.00
33949;BME280;20229;49.856;19.030;2022-09-16T04:06:27;100689.48;;;12.84;100.00
33949;BME280;20229;49.856;19.030;2022-09-16T04:11:50;100685.10;;;12.67;100.00
33949;BME280;20229;49.856;19.030;2022-09-16T04:16:54;100693.71;;;12.61;100.00
33949;BME280;20229;49.856;19.030;2022-09-16T04:22:17;100702.63;;;12.51;100.00
33949;BME280;20229;49.856;19.030;2022-09-16T04:27:21;100695.59;;;12.47;100.00
33949;BME280;20229;49.856;19.030;2022-09-16T04:32:43;100693.35;;;12.39;100.00
33949;BME280;20229;49.856;19.030;2022-09-16T04:37:46;100685.25;;;12.37;100.00
33949;BME280;20229;49.856;19.030;2022-09-16T04:43:08;100687.38;;;12.32;100.00
33949;BME280;20229;49.856;19.030;2022-09-16T04:48:11;100678.00;;;12.36;100.00
33949;BME280;20229;49.856;19.030;2022-09-16T04:53:35;100679.66;;;12.39;100.00
33949;BME280;20229;49.856;19.030;2022-09-16T04:58:39;100664.77;;;12.57;100.00
33949;BME280;20229;49.856;19.030;2022-09-16T05:04:02;100669.51;;;12.82;100.00
33949;BME280;20229;49.856;19.030;2022-09-16T05:09:07;100660.57;;;13.20;99.37
33949;BME280;20229;49.856;19.030;2022-09-16T05:14:27;100663.21;;;13.49;98.89
33949;BME280;20229;49.856;19.030;2022-09-16T05:19:30;100681.03;;;13.81;96.25
33949;BME280;20229;49.856;19.030;2022-09-16T05:24:52;100698.29;;;14.09;95.51
33949;BME280;20229;49.856;19.030;2022-09-16T05:29:56;100699.49;;;14.30;94.74
33949;BME280;20229;49.856;19.030;2022-09-16T05:35:17;100701.90;;;14.48;94.42
33949;BME280;20229;49.856;19.030;2022-09-16T05:40:21;100707.73;;;14.69;93.32
33949;BME280;20229;49.856;19.030;2022-09-16T05:45:43;100703.95;;;14.82;91.18
33949;BME280;20229;49.856;19.030;2022-09-16T05:50:53;100687.11;;;14.87;89.22
33949;BME280;20229;49.856;19.030;2022-09-16T05:56:17;100671.55;;;14.75;89.47
33949;BME280;20229;49.856;19.030;2022-09-16T06:01:23;100659.34;;;14.79;88.10
33949;BME280;20229;49.856;19.030;2022-09-16T06:06:40;100664.80;;;14.92;88.00
33949;BME280;20229;49.856;19.030;2022-09-16T06:11:47;100659.60;;;15.24;86.95
33949;BME280;20229;49.856;19.030;2022-09-16T06:17:03;100660.33;;;15.50;86.86
33949;BME280;20229;49.856;19.030;2022-09-16T06:22:06;100663.86;;;15.87;84.62
33949;BME280;20229;49.856;19.030;2022-09-16T06:27:24;100674.82;;;16.34;81.63
33949;BME280;20229;49.856;19.030;2022-09-16T06:32:30;100669.99;;;17.14;78.58
33949;BME280;20229;49.856;19.030;2022-09-16T06:37:49;100660.73;;;17.68;76.09
33949;BME280;20229;49.856;19.030;2022-09-16T06:42:54;100652.30;;;18.63;73.21
33949;BME280;20229;49.856;19.030;2022-09-16T06:48:14;100650.99;;;22.32;64.23
33949;BME280;20229;49.856;19.030;2022-09-16T06:53:18;100633.44;;;25.65;55.92
33949;BME280;20229;49.856;19.030;2022-09-16T06:58:41;100638.03;;;28.17;47.87
33949;BME280;20229;49.856;19.030;2022-09-16T07:05:00;100627.94;;;32.46;42.91
33949;BME280;20229;49.856;19.030;2022-09-16T07:10:25;100647.41;;;35.76;35.13
33949;BME280;20229;49.856;19.030;2022-09-16T07:15:29;100641.44;;;36.90;29.02
33949;BME280;20229;49.856;19.030;2022-09-16T07:20:51;100658.30;;;33.49;30.94
33949;BME280;20229;49.856;19.030;2022-09-16T07:31:21;100643.91;;;33.32;35.97
33949;BME280;20229;49.856;19.030;2022-09-16T07:36:30;100643.02;;;33.68;30.32
33949;BME280;20229;49.856;19.030;2022-09-16T07:41:43;100646.50;;;33.52;32.65
33949;BME280;20229;49.856;19.030;2022-09-16T07:46:47;100651.57;;;32.26;32.83
33949;BME280;20229;49.856;19.030;2022-09-16T07:52:06;100667.20;;;31.59;32.83
33949;BME280;20229;49.856;19.030;2022-09-16T07:57:10;100663.10;;;31.03;33.42
33949;BME280;20229;49.856;19.030;2022-09-16T08:02:31;100659.55;;;33.35;32.21
33949;BME280;20229;49.856;19.030;2022-09-16T08:07:35;100649.84;;;34.44;31.19
33949;BME280;20229;49.856;19.030;2022-09-16T08:12:57;100664.47;;;35.35;27.85
33949;BME280;20229;49.856;19.030;2022-09-16T08:18:00;100661.59;;;37.05;26.59
33949;BME280;20229;49.856;19.030;2022-09-16T08:23:22;100669.85;;;37.95;26.17
33949;BME280;20229;49.856;19.030;2022-09-16T08:28:27;100657.16;;;35.51;26.96
33949;BME280;20229;49.856;19.030;2022-09-16T08:33:47;100667.50;;;31.82;30.14
33949;BME280;20229;49.856;19.030;2022-09-16T08:38:54;100670.08;;;30.87;31.66
33949;BME280;20229;49.856;19.030;2022-09-16T08:44:21;100672.59;;;29.08;33.22
33949;BME280;20229;49.856;19.030;2022-09-16T08:49:36;100674.15;;;26.96;37.30
33949;BME280;20229;49.856;19.030;2022-09-16T08:54:45;100678.11;;;25.19;40.21
33949;BME280;20229;49.856;19.030;2022-09-16T09:00:00;100667.65;;;24.66;41.20
33949;BME280;20229;49.856;19.030;2022-09-16T09:05:14;100665.12;;;24.40;43.07
33949;BME280;20229;49.856;19.030;2022-09-16T09:15:43;100673.16;;;23.85;44.26
33949;BME280;20229;49.856;19.030;2022-09-16T09:26:15;100660.20;;;23.44;45.80
33949;BME280;20229;49.856;19.030;2022-09-16T09:41:54;100676.09;;;22.40;48.81
33949;BME280;20229;49.856;19.030;2022-09-16T09:52:20;100688.52;;;22.10;49.59
33949;BME280;20229;49.856;19.030;2022-09-16T09:57:33;100686.40;;;21.86;49.57
33949;BME280;20229;49.856;19.030;2022-09-16T10:02:41;100683.95;;;21.65;50.66
33949;BME280;20229;49.856;19.030;2022-09-16T10:07:45;100689.99;;;21.61;50.17
33949;BME280;20229;49.856;19.030;2022-09-16T10:12:49;100665.95;;;21.87;49.91
33949;BME280;20229;49.856;19.030;2022-09-16T10:18:00;100669.16;;;22.01;50.31
33949;BME280;20229;49.856;19.030;2022-09-16T10:23:23;100661.59;;;22.11;49.65
33949;BME280;20229;49.856;19.030;2022-09-16T10:28:25;100653.34;;;22.01;49.39
33949;BME280;20229;49.856;19.030;2022-09-16T10:33:44;100644.13;;;22.01;50.22
33949;BME280;20229;49.856;19.030;2022-09-16T10:38:55;100647.03;;;21.73;50.34
33949;BME280;20229;49.856;19.030;2022-09-16T10:44:47;100641.47;;;21.73;50.63
33949;BME280;20229;49.856;19.030;2022-09-16T10:49:20;100642.52;;;21.72;50.71
33949;BME280;20229;49.856;19.030;2022-09-16T10:54:26;100633.77;;;21.85;51.49
33949;BME280;20229;49.856;19.030;2022-09-16T10:59:40;100638.35;;;21.94;49.80
33949;BME280;20229;49.856;19.030;2022-09-16T11:04:54;100631.28;;;22.00;49.09
33949;BME280;20229;49.856;19.030;2022-09-16T11:10:15;100631.50;;;21.80;48.05
33949;BME280;20229;49.856;19.030;2022-09-16T11:47:06;100615.00;;;22.65;47.83
33949;BME280;20229;49.856;19.030;2022-09-16T11:57:37;100597.38;;;22.48;47.00
33949;BME280;20229;49.856;19.030;2022-09-16T12:13:18;100578.32;;;20.58;50.42
33949;BME280;20229;49.856;19.030;2022-09-16T12:18:30;100587.24;;;20.15;51.79
33949;BME280;20229;49.856;19.030;2022-09-16T12:23:40;100577.80;;;20.35;52.98
33949;BME280;20229;49.856;19.030;2022-09-16T12:28:54;100569.58;;;21.16;52.64
33949;BME280;20229;49.856;19.030;2022-09-16T12:34:10;100576.79;;;21.81;50.41
33949;BME280;20229;49.856;19.030;2022-09-16T12:39:15;100564.61;;;22.08;49.84
33949;BME280;20229;49.856;19.030;2022-09-16T13:10:37;100563.39;;;19.94;51.97
33949;BME280;20229;49.856;19.030;2022-09-16T13:15:42;100564.90;;;19.79;52.87
33949;BME280;20229;49.856;19.030;2022-09-16T13:26:03;100551.41;;;20.31;53.91
33949;BME280;20229;49.856;19.030;2022-09-16T13:31:18;100555.23;;;20.85;51.99
33949;BME280;20229;49.856;19.030;2022-09-16T13:36:28;100548.98;;;21.19;50.07
33949;BME280;20229;49.856;19.030;2022-09-16T13:41:38;100549.59;;;20.95;49.91
33949;BME280;20229;49.856;19.030;2022-09-16T13:46:43;100547.51;;;20.61;51.14
33949;BME280;20229;49.856;19.030;2022-09-16T13:51:48;100539.92;;;20.26;51.61
33949;BME280;20229;49.856;19.030;2022-09-16T14:02:14;100530.77;;;19.78;53.09
33949;BME280;20229;49.856;19.030;2022-09-16T14:07:29;100519.16;;;19.65;53.58
33949;BME280;20229;49.856;19.030;2022-09-16T14:12:44;100520.03;;;19.66;53.51
33949;BME280;20229;49.856;19.030;2022-09-16T14:17:54;100521.62;;;19.58;53.42
33949;BME280;20229;49.856;19.030;2022-09-16T14:23:13;100520.60;;;19.50;53.78
33949;BME280;20229;49.856;19.030;2022-09-16T14:28:17;100529.83;;;19.21;53.28
33949;BME280;20229;49.856;19.030;2022-09-16T14:33:27;100535.78;;;18.97;54.90
33949;BME280;20229;49.856;19.030;2022-09-16T14:38:44;100528.30;;;18.69;57.45
33949;BME280;20229;49.856;19.030;2022-09-16T14:43:49;100523.20;;;18.54;58.37
33949;BME280;20229;49.856;19.030;2022-09-16T14:48:56;100523.20;;;18.54;60.05
33949;BME280;20229;49.856;19.030;2022-09-16T14:54:00;100511.01;;;18.67;61.37
33949;BME280;20229;49.856;19.030;2022-09-16T14:59:27;100522.34;;;18.63;60.26
33949;BME280;20229;49.856;19.030;2022-09-16T15:04:35;100528.13;;;18.41;59.78
33949;BME280;20229;49.856;19.030;2022-09-16T15:09:53;100539.05;;;18.02;60.99
33949;BME280;20229;49.856;19.030;2022-09-16T15:20:20;100528.92;;;17.40;64.47
33949;BME280;20229;49.856;19.030;2022-09-16T15:25:32;100526.00;;;17.20;66.31
33949;BME280;20229;49.856;19.030;2022-09-16T15:30:52;100528.42;;;16.93;66.22
33949;BME280;20229;49.856;19.030;2022-09-16T15:36:00;100524.57;;;16.73;66.89
33949;BME280;20229;49.856;19.030;2022-09-16T15:41:14;100539.52;;;16.59;68.97
33949;BME280;20229;49.856;19.030;2022-09-16T15:46:21;100538.51;;;16.60;69.12
33949;BME280;20229;49.856;19.030;2022-09-16T15:51:33;100549.95;;;16.44;69.59
33949;BME280;20229;49.856;19.030;2022-09-16T16:02:03;100553.38;;;15.92;71.85
33949;BME280;20229;49.856;19.030;2022-09-16T16:07:09;100556.85;;;15.71;73.77
33949;BME280;20229;49.856;19.030;2022-09-16T16:12:20;100553.28;;;15.47;75.54
33949;BME280;20229;49.856;19.030;2022-09-16T16:17:24;100534.88;;;15.36;76.97
33949;BME280;20229;49.856;19.030;2022-09-16T16:22:45;100525.73;;;15.24;77.89
33949;BME280;20229;49.856;19.030;2022-09-16T16:27:49;100507.97;;;15.17;77.55
33949;BME280;20229;49.856;19.030;2022-09-16T16:33:11;100514.41;;;15.05;79.28
33949;BME280;20229;49.856;19.030;2022-09-16T16:38:14;100514.13;;;14.97;79.32
33949;BME280;20229;49.856;19.030;2022-09-16T16:43:37;100498.31;;;14.76;79.73
33949;BME280;20229;49.856;19.030;2022-09-16T16:48:40;100499.04;;;14.67;79.11
33949;BME280;20229;49.856;19.030;2022-09-16T16:54:01;100501.74;;;14.56;80.18
33949;BME280;20229;49.856;19.030;2022-09-16T16:59:07;100494.70;;;14.52;80.07
33949;BME280;20229;49.856;19.030;2022-09-16T17:04:27;100512.96;;;14.40;81.11
33949;BME280;20229;49.856;19.030;2022-09-16T17:09:30;100511.48;;;14.23;82.32
33949;BME280;20229;49.856;19.030;2022-09-16T17:14:52;100510.25;;;13.91;83.04
33949;BME280;20229;49.856;19.030;2022-09-16T17:19:56;100522.80;;;13.69;83.40
33949;BME280;20229;49.856;19.030;2022-09-16T17:25:18;100541.67;;;13.48;84.87
33949;BME280;20229;49.856;19.030;2022-09-16T17:30:21;100532.89;;;13.30;84.36
33949;BME280;20229;49.856;19.030;2022-09-16T17:35:43;100526.02;;;13.10;85.58
33949;BME280;20229;49.856;19.030;2022-09-16T17:40:47;100522.29;;;12.99;85.86
33949;BME280;20229;49.856;19.030;2022-09-16T17:46:14;100525.30;;;12.81;86.33
33949;BME280;20229;49.856;19.030;2022-09-16T17:51:19;100529.98;;;12.66;85.82
33949;BME280;20229;49.856;19.030;2022-09-16T17:56:35;100536.80;;;12.47;86.85
33949;BME280;20229;49.856;19.030;2022-09-16T18:01:39;100550.72;;;12.29;87.13
33949;BME280;20229;49.856;19.030;2022-09-16T18:07:00;100551.07;;;12.10;88.11
33949;BME280;20229;49.856;19.030;2022-09-16T18:12:03;100549.02;;;12.00;88.04
33949;BME280;20229;49.856;19.030;2022-09-16T18:17:25;100548.92;;;11.87;88.30
33949;BME280;20229;49.856;19.030;2022-09-16T18:22:29;100542.09;;;11.94;89.27
33949;BME280;20229;49.856;19.030;2022-09-16T18:27:51;100570.34;;;12.09;88.86
33949;BME280;20229;49.856;19.030;2022-09-16T18:32:55;100555.32;;;12.29;88.35
33949;BME280;20229;49.856;19.030;2022-09-16T18:38:16;100562.42;;;12.46;86.24
33949;BME280;20229;49.856;19.030;2022-09-16T18:43:22;100558.37;;;12.65;86.31
33949;BME280;20229;49.856;19.030;2022-09-16T18:48:43;100559.26;;;12.79;85.70
33949;BME280;20229;49.856;19.030;2022-09-16T18:53:49;100575.55;;;12.95;84.78
33949;BME280;20229;49.856;19.030;2022-09-16T18:59:18;100564.72;;;13.06;84.03
33949;BME280;20229;49.856;19.030;2022-09-16T19:04:25;100564.64;;;13.20;82.83
33949;BME280;20229;49.856;19.030;2022-09-16T19:09:34;100569.74;;;13.26;82.61
33949;BME280;20229;49.856;19.030;2022-09-16T19:14:39;100565.16;;;13.39;81.21
33949;BME280;20229;49.856;19.030;2022-09-16T19:19:58;100558.25;;;13.47;80.91
33949;BME280;20229;49.856;19.030;2022-09-16T19:25:03;100563.06;;;13.56;80.23
33949;BME280;20229;49.856;19.030;2022-09-16T19:30:23;100571.08;;;13.59;80.53
33949;BME280;20229;49.856;19.030;2022-09-16T19:35:31;100572.82;;;13.60;78.61
33949;BME280;20229;49.856;19.030;2022-09-16T19:40:49;100577.55;;;13.58;79.47
33949;BME280;20229;49.856;19.030;2022-09-16T19:45:53;100571.64;;;13.64;78.97
33949;BME280;20229;49.856;19.030;2022-09-16T19:51:16;100581.62;;;13.65;79.27
33949;BME280;20229;49.856;19.030;2022-09-16T19:56:24;100568.23;;;13.73;78.84
33949;BME280;20229;49.856;19.030;2022-09-16T20:01:40;100580.40;;;13.69;79.72
33949;BME280;20229;49.856;19.030;2022-09-16T20:06:45;100569.44;;;13.69;79.29
33949;BME280;20229;49.856;19.030;2022-09-16T20:12:05;100573.27;;;13.67;79.38
33949;BME280;20229;49.856;19.030;2022-09-16T20:17:09;100584.68;;;13.73;79.18
33949;BME280;20229;49.856;19.030;2022-09-16T20:22:31;100586.11;;;13.66;78.62
33949;BME280;20229;49.856;19.030;2022-09-16T20:27:34;100582.62;;;13.64;78.57
33949;BME280;20229;49.856;19.030;2022-09-16T20:32:56;100588.74;;;13.55;79.15
33949;BME280;20229;49.856;19.030;2022-09-16T20:38:00;100592.33;;;13.43;78.81
33949;BME280;20229;49.856;19.030;2022-09-16T20:43:22;100593.20;;;13.30;79.98
33949;BME280;20229;49.856;19.030;2022-09-16T20:48:25;100589.68;;;13.28;79.70
33949;BME280;20229;49.856;19.030;2022-09-16T20:53:53;100594.33;;;13.13;80.59
33949;BME280;20229;49.856;19.030;2022-09-16T20:58:58;100594.60;;;12.96;81.54
33949;BME280;20229;49.856;19.030;2022-09-16T21:04:15;100606.55;;;12.68;82.38
33949;BME280;20229;49.856;19.030;2022-09-16T21:09:19;100599.68;;;12.48;82.16
33949;BME280;20229;49.856;19.030;2022-09-16T21:14:38;100597.56;;;12.25;83.66
33949;BME280;20229;49.856;19.030;2022-09-16T21:19:42;100601.19;;;12.11;84.13
33949;BME280;20229;49.856;19.030;2022-09-16T21:25:04;100616.63;;;11.98;85.13
33949;BME280;20229;49.856;19.030;2022-09-16T21:30:09;100613.32;;;11.92;85.26
33949;BME280;20229;49.856;19.030;2022-09-16T21:35:29;100616.01;;;11.78;85.84
33949;BME280;20229;49.856;19.030;2022-09-16T21:40:33;100614.72;;;11.69;86.16
33949;BME280;20229;49.856;19.030;2022-09-16T21:45:55;100611.79;;;11.58;86.75
33949;BME280;20229;49.856;19.030;2022-09-16T21:51:09;100612.95;;;11.54;86.47
33949;BME280;20229;49.856;19.030;2022-09-16T21:56:21;100613.55;;;11.45;87.39
33949;BME280;20229;49.856;19.030;2022-09-16T22:01:27;100617.16;;;11.45;86.98
33949;BME280;20229;49.856;19.030;2022-09-16T22:06:46;100616.72;;;11.37;87.57
33949;BME280;20229;49.856;19.030;2022-09-16T22:11:51;100615.16;;;11.33;87.93
33949;BME280;20229;49.856;19.030;2022-09-16T22:17:11;100627.79;;;11.20;87.95
33949;BME280;20229;49.856;19.030;2022-09-16T22:22:16;100612.96;;;11.10;88.51
33949;BME280;20229;49.856;19.030;2022-09-16T22:27:37;100626.81;;;10.91;88.95
33949;BME280;20229;49.856;19.030;2022-09-16T22:32:40;100621.20;;;10.78;89.00
33949;BME280;20229;49.856;19.030;2022-09-16T22:38:03;100621.14;;;10.64;89.87
33949;BME280;20229;49.856;19.030;2022-09-16T22:43:06;100616.20;;;10.55;90.32
33949;BME280;20229;49.856;19.030;2022-09-16T22:48:28;100620.59;;;10.41;90.88
33949;BME280;20229;49.856;19.030;2022-09-16T22:53:33;100618.31;;;10.34;91.07
33949;BME280;20229;49.856;19.030;2022-09-16T22:58:55;100628.82;;;10.24;91.04
33949;BME280;20229;49.856;19.030;2022-09-16T23:04:00;100628.28;;;10.17;91.63
33949;BME280;20229;49.856;19.030;2022-09-16T23:09:19;100637.07;;;10.06;92.22
33949;BME280;20229;49.856;19.030;2022-09-16T23:14:22;100627.30;;;10.02;92.52
33949;BME280;20229;49.856;19.030;2022-09-16T23:19:44;100627.89;;;9.92;92.68
33949;BME280;20229;49.856;19.030;2022-09-16T23:24:47;100628.05;;;9.89;93.16
33949;BME280;20229;49.856;19.030;2022-09-16T23:30:10;100623.19;;;9.78;93.32
33949;BME280;20229;49.856;19.030;2022-09-16T23:35:14;100625.04;;;9.77;93.60
33949;BME280;20229;49.856;19.030;2022-09-16T23:40:35;100625.56;;;9.68;93.90
33949;BME280;20229;49.856;19.030;2022-09-16T23:45:40;100627.47;;;9.66;93.77
33949;BME280;20229;49.856;19.030;2022-09-16T23:51:01;100619.72;;;9.58;94.14
33949;BME280;20229;49.856;19.030;2022-09-16T23:56:07;100627.08;;;9.56;94.20
